sensor_id;sensor_type;location;lat;lon;timestamp;P1;durP1;ratioP1;P2;durP2;ratioP2
82777;SDS011;72510;45.128;20.734;2024-02-21T08:45:08;8.23;;;4.82;;
82777;SDS011;72510;45.128;20.734;2024-02-21T08:55:10;14.18;;;5.80;;
82777;SDS011;72510;45.128;20.734;2024-02-21T09:05:14;7.45;;;4.70;;
82777;SDS011;72510;45.128;20.734;2024-02-21T09:15:19;10.73;;;5.18;;
82777;SDS011;72510;45.128;20.734;2024-02-21T09:25:21;8.27;;;4.18;;
82777;SDS011;72510;45.128;20.734;2024-02-21T09:35:25;11.40;;;5.10;;
82777;SDS011;72510;45.128;20.734;2024-02-21T09:45:46;7.65;;;3.92;;
82777;SDS011;72510;45.128;20.734;2024-02-21T09:55:52;5.45;;;3.88;;
82777;SDS011;72510;45.128;20.734;2024-02-21T10:05:54;12.90;;;4.65;;
82777;SDS011;72510;45.128;20.734;2024-02-21T10:16:05;22.92;;;10.10;;
82777;SDS011;72510;45.128;20.734;2024-02-21T10:26:10;24.85;;;11.13;;
82777;SDS011;72510;45.128;20.734;2024-02-21T10:36:13;15.93;;;8.32;;
82777;SDS011;72510;45.128;20.734;2024-02-21T10:56:23;6.93;;;3.22;;
82777;SDS011;72510;45.128;20.734;2024-02-21T11:06:29;6.50;;;3.45;;
82777;SDS011;72510;45.128;20.734;2024-02-21T11:16:36;14.07;;;6.10;;
82777;SDS011;72510;45.128;20.734;2024-02-21T11:26:46;6.35;;;3.15;;
82777;SDS011;72510;45.128;20.734;2024-02-21T11:36:50;9.02;;;4.53;;
82777;SDS011;72510;45.128;20.734;2024-02-21T11:46:52;10.25;;;5.50;;
82777;SDS011;72510;45.128;20.734;2024-02-21T11:56:53;6.93;;;4.20;;
82777;SDS011;72510;45.128;20.734;2024-02-21T12:06:55;6.50;;;2.97;;
82777;SDS011;72510;45.128;20.734;2024-02-21T12:27:18;8.88;;;3.42;;
82777;SDS011;72510;45.128;20.734;2024-02-21T12:37:21;9.38;;;5.35;;
82777;SDS011;72510;45.128;20.734;2024-02-21T12:47:25;10.63;;;4.90;;
82777;SDS011;72510;45.128;20.734;2024-02-21T12:57:29;7.68;;;4.90;;
82777;SDS011;72510;45.128;20.734;2024-02-21T13:07:30;8.15;;;4.00;;
82777;SDS011;72510;45.128;20.734;2024-02-21T13:17:46;3.45;;;1.92;;
82777;SDS011;72510;45.128;20.734;2024-02-21T13:27:48;16.48;;;6.75;;
82777;SDS011;72510;45.128;20.734;2024-02-21T13:37:50;4.70;;;2.10;;
82777;SDS011;72510;45.128;20.734;2024-02-21T13:47:52;5.45;;;2.20;;
82777;SDS011;72510;45.128;20.734;2024-02-21T13:57:54;6.80;;;3.80;;
82777;SDS011;72510;45.128;20.734;2024-02-21T14:07:56;10.48;;;4.53;;
82777;SDS011;72510;45.128;20.734;2024-02-21T14:17:58;4.50;;;2.90;;
82777;SDS011;72510;45.128;20.734;2024-02-21T14:27:59;21.33;;;9.88;;
82777;SDS011;72510;45.128;20.734;2024-02-21T14:38:03;51.03;;;19.95;;
82777;SDS011;72510;45.128;20.734;2024-02-21T14:48:05;10.82;;;6.10;;
82777;SDS011;72510;45.128;20.734;2024-02-21T14:58:09;17.52;;;12.35;;
82777;SDS011;72510;45.128;20.734;2024-02-21T15:08:11;13.45;;;6.60;;
82777;SDS011;72510;45.128;20.734;2024-02-21T15:18:14;14.95;;;8.75;;
82777;SDS011;72510;45.128;20.734;2024-02-21T15:28:15;28.85;;;14.57;;
82777;SDS011;72510;45.128;20.734;2024-02-21T15:38:18;59.33;;;25.27;;
82777;SDS011;72510;45.128;20.734;2024-02-21T15:48:20;47.65;;;21.55;;
82777;SDS011;72510;45.128;20.734;2024-02-21T15:58:23;9.90;;;2.55;;
82777;SDS011;72510;45.128;20.734;2024-02-21T16:08:25;3.55;;;1.60;;
82777;SDS011;72510;45.128;20.734;2024-02-21T16:18:26;2.80;;;1.67;;
82777;SDS011;72510;45.128;20.734;2024-02-21T16:28:28;3.50;;;1.98;;
82777;SDS011;72510;45.128;20.734;2024-02-21T16:38:30;3.83;;;1.90;;
82777;SDS011;72510;45.128;20.734;2024-02-21T16:48:33;3.55;;;1.38;;
82777;SDS011;72510;45.128;20.734;2024-02-21T16:58:37;112.18;;;41.67;;
82777;SDS011;72510;45.128;20.734;2024-02-21T17:08:38;70.75;;;29.58;;
82777;SDS011;72510;45.128;20.734;2024-02-21T17:18:42;103.60;;;38.33;;
82777;SDS011;72510;45.128;20.734;2024-02-21T17:28:46;303.77;;;117.07;;
82777;SDS011;72510;45.128;20.734;2024-02-21T17:38:48;598.97;;;241.68;;
82777;SDS011;72510;45.128;20.734;2024-02-21T17:48:52;397.05;;;166.02;;
82777;SDS011;72510;45.128;20.734;2024-02-21T17:58:54;404.58;;;181.18;;
82777;SDS011;72510;45.128;20.734;2024-02-21T18:08:55;501.60;;;224.23;;
82777;SDS011;72510;45.128;20.734;2024-02-21T18:18:58;43.38;;;18.27;;
82777;SDS011;72510;45.128;20.734;2024-02-21T18:29:02;50.78;;;27.48;;
82777;SDS011;72510;45.128;20.734;2024-02-21T18:39:03;69.50;;;33.53;;
82777;SDS011;72510;45.128;20.734;2024-02-21T18:49:05;46.10;;;31.20;;
82777;SDS011;72510;45.128;20.734;2024-02-21T18:59:06;36.85;;;23.70;;
82777;SDS011;72510;45.128;20.734;2024-02-21T19:09:07;59.00;;;34.97;;
82777;SDS011;72510;45.128;20.734;2024-02-21T19:19:09;35.28;;;20.83;;
82777;SDS011;72510;45.128;20.734;2024-02-21T19:29:10;34.78;;;21.45;;
82777;SDS011;72510;45.128;20.734;2024-02-21T19:39:11;25.83;;;9.52;;
82777;SDS011;72510;45.128;20.734;2024-02-21T19:49:14;57.70;;;32.05;;
82777;SDS011;72510;45.128;20.734;2024-02-21T19:59:15;54.67;;;24.80;;
82777;SDS011;72510;45.128;20.734;2024-02-21T20:09:16;17.50;;;11.63;;
82777;SDS011;72510;45.128;20.734;2024-02-21T20:19:17;27.15;;;14.52;;
82777;SDS011;72510;45.128;20.734;2024-02-21T20:29:19;31.30;;;18.02;;
82777;SDS011;72510;45.128;20.734;2024-02-21T20:39:20;38.63;;;21.98;;
82777;SDS011;72510;45.128;20.734;2024-02-21T20:49:21;31.77;;;20.85;;
82777;SDS011;72510;45.128;20.734;2024-02-21T20:59:22;42.10;;;24.80;;
82777;SDS011;72510;45.128;20.734;2024-02-21T21:09:24;75.43;;;35.45;;
82777;SDS011;72510;45.128;20.734;2024-02-21T21:19:27;52.35;;;27.00;;
82777;SDS011;72510;45.128;20.734;2024-02-21T21:29:30;22.73;;;13.00;;
82777;SDS011;72510;45.128;20.734;2024-02-21T21:39:31;68.25;;;32.45;;
82777;SDS011;72510;45.128;20.734;2024-02-21T21:49:32;56.00;;;25.05;;
82777;SDS011;72510;45.128;20.734;2024-02-21T21:59:35;32.38;;;17.33;;
82777;SDS011;72510;45.128;20.734;2024-02-21T22:09:38;19.98;;;11.85;;
82777;SDS011;72510;45.128;20.734;2024-02-21T22:19:39;62.08;;;32.42;;
82777;SDS011;72510;45.128;20.734;2024-02-21T22:29:40;41.60;;;21.88;;
82777;SDS011;72510;45.128;20.734;2024-02-21T22:39:43;48.30;;;24.63;;
82777;SDS011;72510;45.128;20.734;2024-02-21T22:49:45;40.22;;;18.77;;
82777;SDS011;72510;45.128;20.734;2024-02-21T22:59:46;35.10;;;20.85;;
82777;SDS011;72510;45.128;20.734;2024-02-21T23:09:50;35.58;;;18.73;;
82777;SDS011;72510;45.128;20.734;2024-02-21T23:19:51;26.13;;;15.45;;
82777;SDS011;72510;45.128;20.734;2024-02-21T23:29:52;28.08;;;14.60;;
82777;SDS011;72510;45.128;20.734;2024-02-21T23:39:53;36.47;;;19.45;;
82777;SDS011;72510;45.128;20.734;2024-02-21T23:49:55;44.03;;;23.45;;
82777;SDS011;72510;45.128;20.734;2024-02-21T23:59:58;36.83;;;17.63;;
